createdAt,value
2018-03-01T00:02:22.780Z,94810
2018-03-01T00:04:51.824Z,94808
2018-03-01T00:07:19.932Z,94801
2018-03-01T00:09:48.820Z,94825
2018-03-01T00:12:20.852Z,94829
2018-03-01T00:14:48.995Z,94826
2018-03-01T00:17:17.865Z,94812
2018-03-01T00:19:46.164Z,94822
2018-03-01T00:25:15.762Z,94816
2018-03-01T00:27:48.481Z,94780
2018-03-01T00:30:17.292Z,94786
2018-03-01T00:32:45.466Z,94788
2018-03-01T00:35:13.868Z,94781
2018-03-01T00:37:42.001Z,94760
2018-03-01T00:40:10.144Z,94732
2018-03-01T00:42:38.261Z,94738
2018-03-01T00:45:06.447Z,94737
2018-03-01T00:47:34.555Z,94712
2018-03-01T00:50:02.685Z,94717
2018-03-01T00:52:30.850Z,94713
2018-03-01T00:54:58.974Z,94736
2018-03-01T00:57:27.127Z,94732
2018-03-01T00:59:55.313Z,94737
2018-03-01T01:02:23.439Z,94737
2018-03-01T01:04:51.545Z,94741
2018-03-01T01:07:19.737Z,94732
2018-03-01T01:09:47.866Z,94737
2018-03-01T01:12:16.093Z,94733
2018-03-01T01:14:44.313Z,94725
2018-03-01T01:17:12.540Z,94718
2018-03-01T01:19:40.794Z,94703
2018-03-01T01:22:09.087Z,94692
2018-03-01T01:24:37.884Z,94683
2018-03-01T01:27:06.016Z,94688
2018-03-01T01:29:34.150Z,94684
2018-03-01T01:32:02.266Z,94662
2018-03-01T01:34:30.398Z,94645
2018-03-01T01:36:58.536Z,94639
2018-03-01T01:39:27.436Z,94628
2018-03-01T01:41:56.263Z,94627
2018-03-01T01:44:24.400Z,94628
2018-03-01T01:46:52.568Z,94616
2018-03-01T01:49:20.734Z,94617
2018-03-01T01:51:49.637Z,94624
2018-03-01T01:54:17.759Z,94643
2018-03-01T01:56:46.169Z,94640
2018-03-01T01:59:14.326Z,94626
2018-03-01T02:01:42.469Z,94621
2018-03-01T02:04:10.571Z,94616
2018-03-01T02:06:38.719Z,94632
2018-03-01T02:09:06.855Z,94638
2018-03-01T02:11:35.130Z,94630
2018-03-01T02:14:03.263Z,94624
2018-03-01T02:16:31.446Z,94617
2018-03-01T02:18:59.743Z,94618
2018-03-01T02:21:27.934Z,94622
2018-03-01T02:23:56.831Z,94615
2018-03-01T02:26:25.035Z,94622
2018-03-01T02:28:53.181Z,94618
2018-03-01T02:31:25.404Z,94616
2018-03-01T02:33:53.508Z,94615
2018-03-01T02:36:34.182Z,94610
2018-03-01T02:39:03.522Z,94621
2018-03-01T02:41:31.660Z,94601
2018-03-01T02:44:00.172Z,94606
2018-03-01T02:46:28.462Z,94608
2018-03-01T02:48:57.313Z,94608
2018-03-01T02:51:26.011Z,94607
2018-03-01T02:53:54.448Z,94601
2018-03-01T02:56:29.003Z,94595
2018-03-01T02:58:59.700Z,94588
2018-03-01T03:01:29.338Z,94573
2018-03-01T03:03:57.850Z,94559
2018-03-01T03:06:25.974Z,94555
2018-03-01T03:21:49.314Z,94531
2018-03-01T03:24:17.520Z,94534
2018-03-01T03:26:45.676Z,94538
2018-03-01T03:29:13.816Z,94533
2018-03-01T03:31:41.952Z,94524
2018-03-01T03:34:10.091Z,94522
2018-03-01T03:36:38.231Z,94503
2018-03-01T03:39:06.787Z,94507
2018-03-01T03:41:34.919Z,94503
2018-03-01T03:44:03.165Z,94503
2018-03-01T03:46:31.288Z,94506
2018-03-01T03:48:59.415Z,94500
2018-03-01T03:51:27.539Z,94504
2018-03-01T03:53:55.688Z,94507
2018-03-01T03:56:23.831Z,94502
2018-03-01T03:58:52.042Z,94500
2018-03-01T04:01:20.174Z,94502
2018-03-01T04:03:49.276Z,94502
2018-03-01T04:06:17.398Z,94497
2018-03-01T04:08:45.526Z,94502
2018-03-01T04:11:13.641Z,94486
2018-03-01T04:13:41.799Z,94492
2018-03-01T04:16:09.872Z,94496
2018-03-01T04:18:38.760Z,94489
2018-03-01T04:21:07.652Z,94484
2018-03-01T04:23:35.812Z,94473
2018-03-01T04:26:03.938Z,94478
2018-03-01T04:28:32.043Z,94475
2018-03-01T04:31:00.184Z,94484
2018-03-01T04:33:28.844Z,94481
2018-03-01T04:35:56.985Z,94485
2018-03-01T04:38:25.082Z,94464
2018-03-01T04:40:53.202Z,94456
2018-03-01T04:43:21.431Z,94458
2018-03-01T04:45:49.619Z,94466
2018-03-01T04:48:17.883Z,94460
2018-03-01T04:50:46.168Z,94462
2018-03-01T04:53:14.435Z,94459
2018-03-01T04:55:42.699Z,94452
2018-03-01T04:58:14.943Z,94460
2018-03-01T05:00:43.109Z,94454
2018-03-01T05:03:11.235Z,94434
2018-03-01T05:05:39.443Z,94452
2018-03-01T05:08:07.568Z,94449
2018-03-01T05:10:36.459Z,94441
2018-03-01T05:13:04.598Z,94428
2018-03-01T05:15:32.718Z,94425
2018-03-01T05:18:00.808Z,94410
2018-03-01T05:20:28.915Z,94422
2018-03-01T05:22:57.032Z,94421
2018-03-01T05:25:25.151Z,94406
2018-03-01T05:27:53.266Z,94417
2018-03-01T05:30:21.367Z,94419
2018-03-01T05:32:49.494Z,94420
2018-03-01T05:35:18.368Z,94416
2018-03-01T05:37:46.489Z,94417
2018-03-01T05:40:14.606Z,94420
2018-03-01T05:42:42.722Z,94434
2018-03-01T05:45:11.113Z,94427
2018-03-01T05:47:39.250Z,94417
2018-03-01T05:50:07.398Z,94420
2018-03-01T05:52:35.508Z,94434
2018-03-01T05:55:03.691Z,94445
2018-03-01T05:57:32.487Z,94453
2018-03-01T06:00:05.109Z,94428
2018-03-01T06:02:33.236Z,94434
2018-03-01T06:05:01.444Z,94425
2018-03-01T06:07:29.561Z,94408
2018-03-01T06:09:57.892Z,94401
2018-03-01T06:12:26.159Z,94395
2018-03-01T06:14:54.335Z,94397
2018-03-01T06:17:22.572Z,94403
2018-03-01T06:19:50.839Z,94391
2018-03-01T06:22:19.771Z,94378
2018-03-01T06:24:47.875Z,94369
2018-03-01T06:27:16.013Z,94374
2018-03-01T06:29:44.131Z,94373
2018-03-01T06:32:12.976Z,94362
2018-03-01T06:34:41.108Z,94360
2018-03-01T06:37:09.219Z,94364
2018-03-01T06:39:37.363Z,94356
2018-03-01T06:42:05.517Z,94360
2018-03-01T06:44:33.639Z,94356
2018-03-01T06:47:01.756Z,94370
2018-03-01T06:49:29.943Z,94366
2018-03-01T06:51:58.928Z,94365
2018-03-01T06:54:27.060Z,94355
2018-03-01T06:56:55.218Z,94359
2018-03-01T06:59:24.080Z,94364
2018-03-01T07:01:52.962Z,94363
2018-03-01T07:04:21.078Z,94366
2018-03-01T07:06:49.286Z,94367
2018-03-01T07:09:17.392Z,94361
2018-03-01T07:11:45.597Z,94367
2018-03-01T07:14:13.718Z,94359
2018-03-01T07:16:42.608Z,94352
2018-03-01T07:19:10.729Z,94350
2018-03-01T07:21:38.867Z,94346
2018-03-01T07:24:07.016Z,94337
2018-03-01T07:26:35.183Z,94343
2018-03-01T07:29:03.340Z,94348
2018-03-01T07:31:31.460Z,94352
2018-03-01T07:33:59.580Z,94347
2018-03-01T07:36:27.721Z,94333
2018-03-01T07:38:55.895Z,94343
2018-03-01T07:41:24.085Z,94334
2018-03-01T07:43:52.175Z,94332
2018-03-01T07:46:20.312Z,94333
2018-03-01T07:48:48.437Z,94338
2018-03-01T07:51:16.555Z,94316
2018-03-01T07:53:44.669Z,94318
2018-03-01T07:56:12.794Z,94318
2018-03-01T07:58:41.702Z,94319
2018-03-01T08:01:09.818Z,94306
2018-03-01T08:03:38.704Z,94296
2018-03-01T08:06:10.534Z,94300
2018-03-01T08:08:38.668Z,94299
2018-03-01T08:11:07.556Z,94293
2018-03-01T08:13:35.752Z,94277
2018-03-01T08:16:03.856Z,94257
2018-03-01T08:18:31.992Z,94263
2018-03-01T08:21:00.108Z,94261
2018-03-01T08:23:28.989Z,94244
2018-03-01T08:25:57.116Z,94230
2018-03-01T08:28:25.313Z,94226
2018-03-01T08:30:53.581Z,94225
2018-03-01T08:33:22.468Z,94249
2018-03-01T08:35:50.578Z,94233
2018-03-01T08:38:18.717Z,94225
2018-03-01T08:40:46.824Z,94231
2018-03-01T08:43:14.940Z,94241
2018-03-01T08:45:43.694Z,94244
2018-03-01T08:48:11.808Z,94242
2018-03-01T08:50:39.953Z,94249
2018-03-01T08:53:08.121Z,94243
2018-03-01T08:55:36.281Z,94256
2018-03-01T08:58:04.400Z,94246
2018-03-01T09:00:32.568Z,94240
2018-03-01T09:03:01.057Z,94238
2018-03-01T09:05:29.192Z,94231
2018-03-01T09:07:57.469Z,94222
2018-03-01T09:10:25.709Z,94232
2018-03-01T09:12:53.991Z,94216
2018-03-01T09:15:22.229Z,94204
2018-03-01T09:17:50.480Z,94222
2018-03-01T09:20:18.712Z,94228
2018-03-01T09:22:46.965Z,94225
2018-03-01T09:25:15.870Z,94230
2018-03-01T09:27:44.001Z,94225
2018-03-01T09:30:12.126Z,94232
2018-03-01T09:32:40.245Z,94222
2018-03-01T09:35:08.426Z,94218
2018-03-01T09:37:36.535Z,94214
2018-03-01T09:40:04.717Z,94219
2018-03-01T09:42:32.933Z,94225
2018-03-01T09:45:01.220Z,94217
2018-03-01T09:47:33.244Z,94225
2018-03-01T09:50:01.388Z,94227
2018-03-01T09:52:33.502Z,94228
2018-03-01T09:55:06.133Z,94223
2018-03-01T09:57:35.161Z,94216
2018-03-01T10:00:03.357Z,94219
2018-03-01T10:02:32.946Z,94214
2018-03-01T10:05:01.087Z,94208
2018-03-01T10:07:30.069Z,94204
2018-03-01T10:09:59.016Z,94206
2018-03-01T10:12:27.163Z,94204
2018-03-01T10:14:55.287Z,94207
2018-03-01T10:17:23.412Z,94204
2018-03-01T10:19:51.509Z,94204
2018-03-01T10:22:19.649Z,94197
2018-03-01T10:24:47.761Z,94195
2018-03-01T10:27:15.902Z,94209
2018-03-01T10:29:47.747Z,94205
2018-03-01T10:32:15.885Z,94206
2018-03-01T10:34:44.016Z,94195
2018-03-01T10:37:12.128Z,94197
2018-03-01T10:39:40.270Z,94203
2018-03-01T10:42:08.488Z,94210
2018-03-01T10:44:36.741Z,94222
2018-03-01T10:47:04.904Z,94213
2018-03-01T10:49:33.132Z,94218
2018-03-01T10:52:01.666Z,94226
2018-03-01T10:54:29.784Z,94214
2018-03-01T10:56:57.910Z,94214
2018-03-01T11:09:06.047Z,94191
2018-03-01T11:11:34.169Z,94182
2018-03-01T11:14:05.643Z,94201
2018-03-01T11:16:34.570Z,94189
2018-03-01T11:19:02.749Z,94207
2018-03-01T11:21:30.857Z,94204
2018-03-01T11:23:58.993Z,94202
2018-03-01T11:26:27.096Z,94203
2018-03-01T11:28:55.229Z,94188
2018-03-01T11:31:23.332Z,94197
2018-03-01T11:33:51.445Z,94185
2018-03-01T11:36:19.569Z,94187
2018-03-01T11:38:47.673Z,94192
2018-03-01T11:41:15.807Z,94182
2018-03-01T11:43:43.927Z,94168
2018-03-01T11:46:12.153Z,94170
2018-03-01T11:48:40.375Z,94166
2018-03-01T11:51:09.339Z,94152
2018-03-01T11:53:37.505Z,94159
2018-03-01T11:56:05.613Z,94150
2018-03-01T11:58:33.772Z,94141
2018-03-01T12:01:01.874Z,94141
2018-03-01T12:03:29.976Z,94142
2018-03-01T12:05:58.182Z,94145
2018-03-01T12:08:26.469Z,94135
2018-03-01T12:10:54.583Z,94131
2018-03-01T12:13:22.749Z,94131
2018-03-01T12:15:50.878Z,94131
2018-03-01T12:18:18.985Z,94130
2018-03-01T12:20:47.097Z,94122
2018-03-01T12:23:15.210Z,94129
2018-03-01T12:25:44.168Z,94124
2018-03-01T12:28:12.298Z,94106
2018-03-01T12:30:40.434Z,94118
2018-03-01T12:33:08.573Z,94108
2018-03-01T12:35:36.711Z,94103
2018-03-01T12:38:04.818Z,94104
2018-03-01T12:40:32.917Z,94108
2018-03-01T12:43:01.020Z,94100
2018-03-01T12:45:29.897Z,94097
2018-03-01T12:47:58.012Z,94095
2018-03-01T12:50:26.126Z,94094
2018-03-01T12:52:54.254Z,94083
2018-03-01T12:55:22.384Z,94081
2018-03-01T12:57:50.504Z,94073
2018-03-01T13:00:19.357Z,94070
2018-03-01T13:02:48.235Z,94079
2018-03-01T13:05:16.428Z,94083
2018-03-01T13:07:44.572Z,94081
2018-03-01T13:10:12.661Z,94078
2018-03-01T13:12:40.848Z,94078
2018-03-01T13:15:09.119Z,94081
2018-03-01T13:17:37.490Z,94071
2018-03-01T13:20:05.631Z,94076
2018-03-01T13:22:33.745Z,94073
2018-03-01T13:25:02.042Z,94070
2018-03-01T13:27:30.845Z,94072
2018-03-01T13:29:58.995Z,94075
2018-03-01T13:32:42.739Z,94076
2018-03-01T13:38:14.295Z,94073
2018-03-01T13:40:43.185Z,94073
2018-03-01T13:43:25.088Z,94057
2018-03-01T13:45:53.507Z,94063
2018-03-01T13:48:21.613Z,94058
2018-03-01T13:50:50.937Z,94054
2018-03-01T13:53:19.172Z,94050
2018-03-01T13:55:47.360Z,94057
2018-03-01T13:58:15.511Z,94058
2018-03-01T14:00:43.617Z,94058
2018-03-01T14:03:11.744Z,94054
2018-03-01T14:05:54.672Z,94058
2018-03-01T14:08:22.783Z,94055
2018-03-01T14:10:51.880Z,94059
2018-03-01T14:13:20.315Z,94055
2018-03-01T14:15:48.496Z,94050
2018-03-01T14:21:29.606Z,94050
2018-03-01T14:23:57.762Z,94054
2018-03-01T14:26:43.641Z,94053
2018-03-01T14:29:28.504Z,94057
2018-03-01T14:31:56.656Z,94046
2018-03-01T14:34:24.769Z,94031
2018-03-01T14:36:52.906Z,94041
2018-03-01T14:39:21.121Z,94039
2018-03-01T14:41:50.705Z,94043
2018-03-01T14:44:18.797Z,94039
2018-03-01T14:46:47.873Z,94045
2018-03-01T14:49:16.009Z,94038
2018-03-01T14:51:44.481Z,94035
2018-03-01T14:54:13.351Z,94031
2018-03-01T14:56:41.490Z,94030
2018-03-01T14:59:09.661Z,94034
2018-03-01T15:01:37.771Z,94027
2018-03-01T15:04:05.878Z,94026
2018-03-01T15:06:34.804Z,94031
2018-03-01T15:09:04.131Z,94035
2018-03-01T15:11:32.235Z,94026
2018-03-01T15:14:00.385Z,94025
2018-03-01T15:16:28.476Z,94014
2018-03-01T15:18:57.342Z,94022
2018-03-01T15:21:26.277Z,94019
2018-03-01T15:23:58.462Z,94009
2018-03-01T15:26:26.713Z,94010
2018-03-01T15:28:54.852Z,94011
2018-03-01T15:31:23.263Z,94025
2018-03-01T15:33:51.407Z,94010
2018-03-01T15:36:20.120Z,93997
2018-03-01T15:38:48.260Z,94006
2018-03-01T15:41:16.493Z,93980
2018-03-01T15:43:44.633Z,93993
2018-03-01T15:46:12.728Z,93996
2018-03-01T15:48:40.889Z,93997
2018-03-01T15:51:09.063Z,93999
2018-03-01T15:53:37.185Z,93991
2018-03-01T15:56:05.515Z,94000
2018-03-01T15:58:34.209Z,93998
2018-03-01T16:01:02.349Z,94004
2018-03-01T16:03:30.439Z,94000
2018-03-01T16:05:58.566Z,93988
2018-03-01T16:08:26.683Z,93991
2018-03-01T16:10:54.786Z,93986
2018-03-01T16:13:22.883Z,93989
2018-03-01T16:15:51.039Z,93985
2018-03-01T16:18:19.261Z,93991
2018-03-01T16:20:47.383Z,93984
2018-03-01T16:23:15.501Z,93985
2018-03-01T16:25:43.648Z,93986
2018-03-01T16:28:11.866Z,94002
2018-03-01T16:30:40.148Z,93996
2018-03-01T16:33:08.475Z,93999
2018-03-01T16:35:36.756Z,93994
2018-03-01T16:38:04.858Z,93992
2018-03-01T16:40:37.156Z,93986
2018-03-01T16:56:00.646Z,94005
2018-03-01T16:58:28.783Z,93992
2018-03-01T17:00:57.231Z,93994
2018-03-01T17:03:25.352Z,93998
2018-03-01T17:05:53.476Z,94002
2018-03-01T17:08:21.598Z,93996
2018-03-01T17:10:49.715Z,93996
2018-03-01T17:13:17.859Z,93996
2018-03-01T17:15:45.964Z,93993
2018-03-01T17:18:14.080Z,93995
2018-03-01T17:20:42.184Z,93997
2018-03-01T17:23:10.613Z,93996
2018-03-01T17:25:38.757Z,93995
2018-03-01T17:28:07.070Z,94002
2018-03-01T17:30:35.173Z,94002
2018-03-01T17:33:03.288Z,94004
2018-03-01T17:35:31.451Z,93996
2018-03-01T17:37:59.573Z,94009
2018-03-01T17:40:27.709Z,93989
2018-03-01T17:42:55.880Z,93999
2018-03-01T17:45:24.006Z,93992
2018-03-01T17:47:55.760Z,93992
2018-03-01T17:50:23.980Z,93983
2018-03-01T17:52:52.148Z,93975
2018-03-01T17:55:20.696Z,93987
2018-03-01T17:57:48.796Z,93987
2018-03-01T18:00:16.986Z,93985
2018-03-01T18:02:45.219Z,93991
2018-03-01T18:05:15.180Z,93980
2018-03-01T18:07:43.303Z,93977
2018-03-01T18:10:12.062Z,93980
2018-03-01T18:12:40.222Z,93972
2018-03-01T18:15:08.400Z,93972
2018-03-01T18:17:36.621Z,93967
2018-03-01T18:20:05.705Z,93958
2018-03-01T18:22:34.468Z,93950
2018-03-01T18:25:02.620Z,93953
2018-03-01T18:27:30.736Z,93949
2018-03-01T18:29:58.930Z,93950
2018-03-01T18:32:27.106Z,93953
2018-03-01T18:34:55.329Z,93956
2018-03-01T18:37:24.828Z,93957
2018-03-01T18:39:52.949Z,93967
2018-03-01T18:42:21.172Z,93947
2018-03-01T18:44:49.815Z,93942
2018-03-01T18:47:17.950Z,93938
2018-03-01T18:49:46.118Z,93948
2018-03-01T18:52:14.245Z,93937
2018-03-01T18:54:42.362Z,93941
2018-03-01T18:57:10.511Z,93951
2018-03-01T18:59:38.645Z,93938
2018-03-01T19:02:06.873Z,93936
2018-03-01T19:04:34.995Z,93935
2018-03-01T19:07:03.114Z,93939
2018-03-01T19:09:31.226Z,93936
2018-03-01T19:11:59.905Z,93938
2018-03-01T19:14:28.065Z,93933
2018-03-01T19:16:56.188Z,93939
2018-03-01T19:19:24.893Z,93929
2018-03-01T19:21:52.994Z,93943
2018-03-01T19:24:21.263Z,93931
2018-03-01T19:26:49.580Z,93928
2018-03-01T19:29:17.772Z,93927
2018-03-01T19:31:45.922Z,93924
2018-03-01T19:34:14.168Z,93931
2018-03-01T19:36:42.462Z,93924
2018-03-01T19:39:10.720Z,93935
2018-03-01T19:41:38.863Z,93933
2018-03-01T19:44:07.209Z,93927
2018-03-01T19:46:35.644Z,93933
2018-03-01T19:49:04.536Z,93935
2018-03-01T19:51:32.646Z,93936
2018-03-01T19:54:00.798Z,93934
2018-03-01T19:56:28.916Z,93926
2018-03-01T19:59:01.062Z,93914
2018-03-01T20:01:29.198Z,93923
2018-03-01T20:03:57.345Z,93925
2018-03-01T20:06:25.473Z,93922
2018-03-01T20:08:53.726Z,93921
2018-03-01T20:11:21.840Z,93922
2018-03-01T20:13:49.961Z,93912
2018-03-01T20:16:18.144Z,93899
2018-03-01T20:18:46.279Z,93899
2018-03-01T20:21:14.384Z,93907
2018-03-01T20:23:42.571Z,93898
2018-03-01T20:26:11.255Z,93893
2018-03-01T20:28:39.357Z,93893
2018-03-01T20:31:07.493Z,93895
2018-03-01T20:33:35.642Z,93898
2018-03-01T20:36:03.771Z,93894
2018-03-01T20:38:31.905Z,93892
2018-03-01T20:41:00.046Z,93887
2018-03-01T20:43:28.181Z,93893
2018-03-01T20:45:56.318Z,93886
2018-03-01T20:48:25.236Z,93903
2018-03-01T20:50:53.800Z,93896
2018-03-01T20:53:22.024Z,93896
2018-03-01T20:55:50.271Z,93896
2018-03-01T20:58:18.506Z,93896
2018-03-01T21:00:47.395Z,93891
2018-03-01T21:03:15.530Z,93887
2018-03-01T21:05:43.627Z,93883
2018-03-01T21:08:11.758Z,93892
2018-03-01T21:10:39.883Z,93879
2018-03-01T21:13:08.049Z,93875
2018-03-01T21:15:36.159Z,93875
2018-03-01T21:18:04.356Z,93870
2018-03-01T21:20:32.471Z,93861
2018-03-01T21:23:00.682Z,93863
2018-03-01T21:25:29.381Z,93874
2018-03-01T21:27:57.577Z,93863
2018-03-01T21:30:25.724Z,93857
2018-03-01T21:32:53.896Z,93842
2018-03-01T21:35:22.639Z,93847
2018-03-01T21:37:55.020Z,93845
2018-03-01T21:40:23.901Z,93841
2018-03-01T21:42:52.027Z,93844
2018-03-01T21:45:20.142Z,93823
2018-03-01T21:47:48.341Z,93832
2018-03-01T21:50:16.573Z,93821
2018-03-01T21:52:44.795Z,93812
2018-03-01T21:55:13.053Z,93817
2018-03-01T21:57:41.333Z,93816
2018-03-01T22:00:09.587Z,93821
2018-03-01T22:02:37.778Z,93810
2018-03-01T22:05:05.984Z,93813
2018-03-01T22:07:34.287Z,93810
2018-03-01T22:10:02.428Z,93807
2018-03-01T22:12:30.662Z,93819
2018-03-01T22:14:58.796Z,93803
2018-03-01T22:17:26.902Z,93802
2018-03-01T22:19:55.760Z,93804
2018-03-01T22:22:23.886Z,93802
2018-03-01T22:24:56.394Z,93802
2018-03-01T22:27:24.504Z,93796
2018-03-01T22:29:52.669Z,93795
2018-03-01T22:32:20.829Z,93794
2018-03-01T22:34:48.973Z,93804
2018-03-01T22:37:17.191Z,93806
2018-03-01T22:39:46.020Z,93817
2018-03-01T22:42:14.928Z,93797
2018-03-01T22:44:43.057Z,93807
2018-03-01T22:47:11.235Z,93789
2018-03-01T22:49:39.513Z,93785
2018-03-01T22:52:07.709Z,93783
2018-03-01T22:54:35.909Z,93778
2018-03-01T22:57:04.133Z,93775
2018-03-01T22:59:32.283Z,93779
2018-03-01T23:02:00.493Z,93773
2018-03-01T23:04:28.621Z,93760
2018-03-01T23:06:56.730Z,93750
2018-03-01T23:09:25.176Z,93751
2018-03-01T23:11:53.289Z,93750
2018-03-01T23:14:21.456Z,93755
2018-03-01T23:16:49.573Z,93749
2018-03-01T23:19:17.701Z,93742
2018-03-01T23:21:45.825Z,93741
2018-03-01T23:24:13.951Z,93730
2018-03-01T23:26:42.151Z,93719
2018-03-01T23:29:10.378Z,93731
2018-03-01T23:31:38.624Z,93717
2018-03-01T23:34:06.775Z,93717
2018-03-01T23:36:35.065Z,93715
2018-03-01T23:39:03.276Z,93701
2018-03-01T23:41:31.572Z,93691
2018-03-01T23:43:59.791Z,93695
2018-03-01T23:46:28.706Z,93699
2018-03-01T23:48:56.874Z,93705
2018-03-01T23:51:24.988Z,93687
2018-03-01T23:53:53.114Z,93702
2018-03-01T23:56:21.238Z,93697
2018-03-01T23:58:49.371Z,93707
